SKW2024 KPDX-KSFO
Flight info
| Callsign | SKW2024 |
|---|---|
| Flight time | N/A |
| Altitude | 35000 |
| Route | MINNE5 EASON Q1 ETCHY MLBEC BDEGA4 |
| Aircraft | E75L/M-SDE3GILORVW/S |
Departure
| Time | 2026-05-08 04:01 |
|---|---|
| Airport | Portland International Airport (KPDX) |
Arrival
| Time | N/A |
|---|---|
| Airport | San Francisco International Airport (KSFO) |
| Time | Latitude | Longitude | Altitude | Speed | Heading |
|---|---|---|---|---|---|
| 2026-05-08 03:23 | 45.59005 | -122.59110 | 29 ft | 0 kts | 208° |
| 2026-05-08 03:31 | 45.59029 | -122.59159 | 29 ft | 0 kts | 208° |
| 2026-05-08 03:50 | 45.59030 | -122.59159 | 29 ft | 1 kts | 208° |
| 2026-05-08 03:50 | 45.59052 | -122.59142 | 29 ft | 4 kts | 207° |
| 2026-05-08 03:50 | 45.59076 | -122.59128 | 29 ft | 4 kts | 193° |
| 2026-05-08 03:50 | 45.59101 | -122.59130 | 29 ft | 4 kts | 143° |
| 2026-05-08 03:51 | 45.59109 | -122.59144 | 29 ft | 1 kts | 119° |
| 2026-05-08 03:51 | 45.59110 | -122.59145 | 29 ft | 0 kts | 119° |
| 2026-05-08 03:55 | 45.59108 | -122.59142 | 29 ft | 1 kts | 118° |
| 2026-05-08 03:56 | 45.59096 | -122.59110 | 29 ft | 7 kts | 118° |
| 2026-05-08 03:56 | 45.59060 | -122.59015 | 29 ft | 15 kts | 118° |
| 2026-05-08 03:56 | 45.58997 | -122.58858 | 29 ft | 22 kts | 116° |
| 2026-05-08 03:56 | 45.58958 | -122.58675 | 29 ft | 18 kts | 81° |
| 2026-05-08 03:57 | 45.58942 | -122.58499 | 31 ft | 19 kts | 119° |
| 2026-05-08 03:57 | 45.58876 | -122.58330 | 29 ft | 21 kts | 120° |
| 2026-05-08 03:57 | 45.58804 | -122.58147 | 30 ft | 22 kts | 118° |
| 2026-05-08 03:57 | 45.58728 | -122.57950 | 30 ft | 23 kts | 121° |
| 2026-05-08 03:58 | 45.58646 | -122.57741 | 30 ft | 25 kts | 119° |
| 2026-05-08 03:58 | 45.58559 | -122.57518 | 29 ft | 26 kts | 118° |
| 2026-05-08 03:58 | 45.58467 | -122.57282 | 29 ft | 28 kts | 118° |
| 2026-05-08 03:58 | 45.58371 | -122.57035 | 29 ft | 29 kts | 120° |
| 2026-05-08 03:59 | 45.58286 | -122.56821 | 29 ft | 18 kts | 118° |
| 2026-05-08 03:59 | 45.58277 | -122.56731 | 29 ft | 1 kts | 64° |
| 2026-05-08 04:00 | 45.58280 | -122.56725 | 29 ft | 4 kts | 60° |
| 2026-05-08 04:00 | 45.58340 | -122.56692 | 28 ft | 15 kts | 347° |
| 2026-05-08 04:00 | 45.58454 | -122.56927 | 27 ft | 61 kts | 298° |
| 2026-05-08 04:01 | 45.58786 | -122.57778 | 31 ft | 133 kts | 299° |
| 2026-05-08 04:01 | 45.59304 | -122.59123 | 413 ft | 166 kts | 300° |
| 2026-05-08 04:01 | 45.59930 | -122.60654 | 1108 ft | 190 kts | 301° |
| 2026-05-08 04:01 | 45.60612 | -122.62331 | 1906 ft | 203 kts | 300° |
| 2026-05-08 04:02 | 45.61302 | -122.64168 | 2598 ft | 213 kts | 295° |
| 2026-05-08 04:02 | 45.61748 | -122.66200 | 3404 ft | 216 kts | 282° |
| 2026-05-08 04:02 | 45.62164 | -122.68253 | 4241 ft | 220 kts | 294° |
| 2026-05-08 04:02 | 45.62892 | -122.70258 | 4981 ft | 241 kts | 298° |
| 2026-05-08 04:03 | 45.63779 | -122.72422 | 5639 ft | 261 kts | 300° |
| 2026-05-08 04:03 | 45.65676 | -122.76934 | 7735 ft | 267 kts | 299° |
| 2026-05-08 04:03 | 45.66624 | -122.79219 | 8781 ft | 268 kts | 296° |
| 2026-05-08 04:04 | 45.67115 | -122.81773 | 9767 ft | 271 kts | 271° |
| 2026-05-08 04:04 | 45.66822 | -122.84475 | 10513 ft | 284 kts | 255° |
| 2026-05-08 04:04 | 45.66216 | -122.87244 | 11193 ft | 299 kts | 252° |
| 2026-05-08 04:04 | 45.65256 | -122.89884 | 11993 ft | 311 kts | 232° |
| 2026-05-08 04:05 | 45.63538 | -122.91815 | 12959 ft | 322 kts | 210° |
| 2026-05-08 04:05 | 45.61375 | -122.92791 | 13977 ft | 332 kts | 192° |
| 2026-05-08 04:05 | 45.59062 | -122.93234 | 14941 ft | 338 kts | 190° |
| 2026-05-08 04:05 | 45.56709 | -122.93607 | 15913 ft | 343 kts | 189° |
| 2026-05-08 04:06 | 45.54330 | -122.93960 | 16862 ft | 346 kts | 189° |
| 2026-05-08 04:06 | 45.51913 | -122.94299 | 17734 ft | 351 kts | 189° |
| 2026-05-08 04:06 | 45.49460 | -122.94615 | 18533 ft | 356 kts | 189° |
| 2026-05-08 04:06 | 45.46975 | -122.94910 | 19271 ft | 360 kts | 188° |
| 2026-05-08 04:07 | 45.44469 | -122.95186 | 20029 ft | 363 kts | 188° |
| 2026-05-08 04:07 | 45.41937 | -122.95454 | 20768 ft | 367 kts | 188° |
| 2026-05-08 04:07 | 45.39407 | -122.95700 | 21491 ft | 371 kts | 188° |
| 2026-05-08 04:07 | 45.36818 | -122.95928 | 22214 ft | 375 kts | 188° |
| 2026-05-08 04:08 | 45.34206 | -122.96138 | 22914 ft | 378 kts | 187° |
| 2026-05-08 04:08 | 45.31565 | -122.96329 | 23585 ft | 382 kts | 187° |
| 2026-05-08 04:08 | 45.28897 | -122.96502 | 24108 ft | 385 kts | 187° |
| 2026-05-08 04:08 | 45.26205 | -122.96660 | 24618 ft | 389 kts | 187° |
| 2026-05-08 04:09 | 45.23485 | -122.96808 | 25131 ft | 392 kts | 187° |
| 2026-05-08 04:09 | 45.20824 | -122.97474 | 25611 ft | 387 kts | 201° |
| 2026-05-08 04:09 | 45.18267 | -122.98703 | 26123 ft | 390 kts | 204° |
| 2026-05-08 04:09 | 45.15733 | -122.99996 | 26582 ft | 394 kts | 204° |
| 2026-05-08 04:10 | 45.13144 | -123.01314 | 27066 ft | 397 kts | 204° |
| 2026-05-08 04:10 | 45.10532 | -123.02636 | 27539 ft | 401 kts | 203° |
| 2026-05-08 04:10 | 45.07894 | -123.03968 | 28000 ft | 404 kts | 203° |
| 2026-05-08 04:10 | 45.05232 | -123.05309 | 28441 ft | 408 kts | 203° |
| 2026-05-08 04:11 | 45.02552 | -123.06657 | 28884 ft | 411 kts | 203° |
| 2026-05-08 04:11 | 44.99845 | -123.08019 | 29311 ft | 414 kts | 203° |
| 2026-05-08 04:11 | 44.97126 | -123.09384 | 29722 ft | 417 kts | 203° |
| 2026-05-08 04:11 | 44.94386 | -123.10760 | 30167 ft | 419 kts | 203° |
| 2026-05-08 04:12 | 44.91633 | -123.12142 | 30516 ft | 421 kts | 203° |
| 2026-05-08 04:12 | 44.88898 | -123.13514 | 30782 ft | 425 kts | 203° |
| 2026-05-08 04:12 | 44.86184 | -123.14668 | 27475 ft | 355 kts | 200° |